createdAt,value
2023-03-03T00:01:10.859Z,2.93
2023-03-03T00:03:40.540Z,2.86
2023-03-03T00:06:11.817Z,2.78
2023-03-03T00:08:40.709Z,2.71
2023-03-03T00:11:09.992Z,2.65
2023-03-03T00:13:45.032Z,2.58
2023-03-03T00:16:18.177Z,2.51
2023-03-03T00:18:48.448Z,2.46
2023-03-03T00:21:20.593Z,2.42
2023-03-03T00:23:49.201Z,2.39
2023-03-03T00:26:41.452Z,2.36
2023-03-03T00:29:31.894Z,2.33
2023-03-03T00:32:23.915Z,2.26
2023-03-03T00:34:54.611Z,2.21
2023-03-03T00:37:25.898Z,2.17
2023-03-03T00:39:58.579Z,2.16
2023-03-03T00:42:28.139Z,2.16
2023-03-03T00:45:00.443Z,2.17
2023-03-03T00:47:31.820Z,2.17
2023-03-03T00:50:06.285Z,2.21
2023-03-03T00:52:39.752Z,2.23
2023-03-03T00:55:08.817Z,2.25
2023-03-03T00:57:39.209Z,2.26
2023-03-03T01:00:18.963Z,2.29
2023-03-03T01:02:48.644Z,2.31
2023-03-03T01:05:18.423Z,2.33
2023-03-03T01:07:46.949Z,2.35
2023-03-03T01:10:15.173Z,2.36
2023-03-03T01:12:43.413Z,2.38
2023-03-03T01:15:14.276Z,2.40
2023-03-03T01:17:43.432Z,2.43
2023-03-03T01:20:13.509Z,2.45
2023-03-03T01:22:42.249Z,2.47
2023-03-03T01:25:11.757Z,2.45
2023-03-03T01:27:39.915Z,2.47
2023-03-03T01:30:09.554Z,2.53
2023-03-03T01:32:37.921Z,2.55
2023-03-03T01:35:06.877Z,2.57
2023-03-03T01:37:36.278Z,2.62
2023-03-03T01:40:08.634Z,2.65
2023-03-03T01:42:37.293Z,2.67
2023-03-03T01:45:23.983Z,2.69
2023-03-03T01:47:56.972Z,2.71
2023-03-03T01:50:43.198Z,2.75
2023-03-03T01:53:23.008Z,2.76
2023-03-03T01:55:53.188Z,2.80
2023-03-03T01:58:30.414Z,2.84
2023-03-03T02:01:04.326Z,2.87
2023-03-03T02:03:33.964Z,2.91
2023-03-03T02:06:10.103Z,2.95
2023-03-03T02:08:51.592Z,2.97
2023-03-03T02:11:22.528Z,2.99
2023-03-03T02:13:51.294Z,3.02
2023-03-03T02:16:19.672Z,3.05
2023-03-03T02:18:47.970Z,3.07
2023-03-03T02:21:19.914Z,3.09
2023-03-03T02:24:00.742Z,3.11
2023-03-03T02:26:31.864Z,3.13
2023-03-03T02:29:03.437Z,3.14
2023-03-03T02:31:33.352Z,3.17
2023-03-03T02:34:01.810Z,3.19
2023-03-03T02:36:36.226Z,3.20
2023-03-03T02:39:12.595Z,3.22
2023-03-03T02:41:59.204Z,3.25
2023-03-03T02:44:33.307Z,3.26
2023-03-03T02:47:01.499Z,3.27
2023-03-03T02:49:33.830Z,3.28
2023-03-03T02:52:05.813Z,3.30
2023-03-03T02:54:34.407Z,3.31
2023-03-03T02:57:04.007Z,3.32
2023-03-03T02:59:32.288Z,3.33
2023-03-03T03:02:07.503Z,3.33
2023-03-03T03:04:36.280Z,3.34
2023-03-03T03:07:05.635Z,3.35
2023-03-03T03:09:34.911Z,3.36
2023-03-03T03:12:03.402Z,3.35
2023-03-03T03:14:33.969Z,3.35
2023-03-03T03:17:02.244Z,3.35
2023-03-03T03:19:30.577Z,3.35
2023-03-03T03:22:01.527Z,3.35
2023-03-03T03:24:30.078Z,3.35
2023-03-03T03:27:02.078Z,3.35
2023-03-03T03:29:30.525Z,3.36
2023-03-03T03:31:58.870Z,3.35
2023-03-03T03:34:27.722Z,3.36
2023-03-03T03:36:57.129Z,3.36
2023-03-03T03:39:25.741Z,3.37
2023-03-03T03:41:54.395Z,3.36
2023-03-03T03:44:24.059Z,3.36
2023-03-03T03:46:52.382Z,3.36
2023-03-03T03:49:21.782Z,3.37
2023-03-03T03:51:51.247Z,3.38
2023-03-03T03:54:20.686Z,3.39
2023-03-03T03:56:48.975Z,3.39
2023-03-03T03:59:17.182Z,3.40
2023-03-03T04:01:45.534Z,3.40
2023-03-03T04:04:14.124Z,3.40
2023-03-03T04:06:42.156Z,3.40
2023-03-03T04:09:11.183Z,3.40
2023-03-03T04:11:39.457Z,3.40
2023-03-03T04:14:09.065Z,3.41
2023-03-03T04:16:37.234Z,3.42
2023-03-03T04:19:05.491Z,3.45
2023-03-03T04:21:34.628Z,3.47
2023-03-03T04:24:03.623Z,3.49
2023-03-03T04:26:34.981Z,3.50
2023-03-03T04:29:04.311Z,3.51
2023-03-03T04:31:33.046Z,3.52
2023-03-03T04:34:01.690Z,3.52
2023-03-03T04:36:35.033Z,3.52
2023-03-03T04:39:03.816Z,3.52
2023-03-03T04:41:35.354Z,3.52
2023-03-03T04:44:03.865Z,3.53
2023-03-03T04:46:32.520Z,3.52
2023-03-03T04:49:01.122Z,3.52
2023-03-03T04:51:29.607Z,3.53
2023-03-03T04:54:00.854Z,3.53
2023-03-03T04:56:34.934Z,3.53
2023-03-03T04:59:03.151Z,3.53
2023-03-03T05:01:33.972Z,3.53
2023-03-03T05:04:03.113Z,3.53
2023-03-03T05:06:31.266Z,3.53
2023-03-03T05:09:02.754Z,3.52
2023-03-03T05:11:32.698Z,3.53
2023-03-03T05:14:03.238Z,3.54
2023-03-03T05:16:32.540Z,3.54
2023-03-03T05:19:02.034Z,3.54
2023-03-03T05:21:30.423Z,3.54
2023-03-03T05:23:59.007Z,3.54
2023-03-03T05:26:27.380Z,3.54
2023-03-03T05:28:56.169Z,3.54
2023-03-03T05:31:26.548Z,3.54
2023-03-03T05:33:55.612Z,3.55
2023-03-03T05:36:23.975Z,3.55
2023-03-03T05:38:52.615Z,3.57
2023-03-03T05:41:20.939Z,3.59
2023-03-03T05:43:49.209Z,3.60
2023-03-03T05:46:18.066Z,3.62
2023-03-03T05:48:46.473Z,3.63
2023-03-03T05:51:15.057Z,3.64
2023-03-03T05:53:43.232Z,3.66
2023-03-03T05:56:11.509Z,3.69
2023-03-03T05:58:39.961Z,3.72
2023-03-03T06:01:08.124Z,3.76
2023-03-03T06:03:36.452Z,3.79
2023-03-03T06:06:05.233Z,3.83
2023-03-03T06:08:33.724Z,3.87
2023-03-03T06:11:02.504Z,3.90
2023-03-03T06:13:33.760Z,3.94
2023-03-03T06:16:02.116Z,3.97
2023-03-03T06:18:30.623Z,4.02
2023-03-03T06:20:58.692Z,4.08
2023-03-03T06:23:26.961Z,4.13
2023-03-03T06:25:55.201Z,4.19
2023-03-03T06:28:25.211Z,4.25
2023-03-03T06:30:55.065Z,4.32
2023-03-03T06:33:23.651Z,4.40
2023-03-03T06:35:53.475Z,4.47
2023-03-03T06:38:22.050Z,4.56
2023-03-03T06:40:50.196Z,4.66
2023-03-03T06:43:18.401Z,4.75
2023-03-03T06:45:47.139Z,4.84
2023-03-03T06:48:15.882Z,4.95
2023-03-03T06:50:44.019Z,5.04
2023-03-03T06:53:17.347Z,5.13
2023-03-03T06:55:46.192Z,5.21
2023-03-03T06:58:19.826Z,5.30
2023-03-03T07:00:57.455Z,5.36
2023-03-03T07:03:32.236Z,5.41
2023-03-03T07:06:01.778Z,5.48
2023-03-03T07:08:32.462Z,5.55
2023-03-03T07:11:09.369Z,5.63
2023-03-03T07:13:43.248Z,5.71
2023-03-03T07:16:13.755Z,5.80
2023-03-03T07:18:45.892Z,5.91
2023-03-03T07:21:18.677Z,6.02
2023-03-03T07:23:51.265Z,6.14
2023-03-03T07:26:24.086Z,6.26
2023-03-03T07:28:58.663Z,6.39
2023-03-03T07:31:36.060Z,6.51
2023-03-03T07:34:22.067Z,6.64
2023-03-03T07:36:54.011Z,6.77
2023-03-03T07:39:38.341Z,6.88
2023-03-03T07:42:31.864Z,7.01
2023-03-03T07:45:30.843Z,7.15
2023-03-03T07:48:31.479Z,7.29
2023-03-03T07:51:06.256Z,7.50
2023-03-03T07:53:38.091Z,7.70
2023-03-03T07:56:20.609Z,7.91
2023-03-03T07:58:52.028Z,8.07
2023-03-03T08:01:40.515Z,8.21
2023-03-03T08:04:13.682Z,8.40
2023-03-03T08:06:50.642Z,8.59
2023-03-03T08:09:18.796Z,8.77
2023-03-03T08:11:49.804Z,8.99
2023-03-03T08:14:27.039Z,9.27
2023-03-03T08:16:57.385Z,9.45
2023-03-03T08:19:27.899Z,9.60
2023-03-03T08:22:12.443Z,9.76
2023-03-03T08:24:40.926Z,9.87
2023-03-03T08:27:09.122Z,9.96
2023-03-03T08:29:47.010Z,9.98
2023-03-03T08:32:17.092Z,10.04
2023-03-03T08:34:45.758Z,10.09
2023-03-03T08:37:14.249Z,10.18
2023-03-03T08:39:43.173Z,10.22
2023-03-03T08:42:11.358Z,10.34
2023-03-03T08:44:39.672Z,10.56
2023-03-03T08:47:07.821Z,11.05
2023-03-03T08:49:36.435Z,11.48
2023-03-03T08:52:04.896Z,11.66
2023-03-03T08:54:44.819Z,11.79
2023-03-03T08:57:22.375Z,11.86
2023-03-03T08:59:59.807Z,11.90
2023-03-03T09:02:27.940Z,12.09
2023-03-03T09:04:56.777Z,12.35
2023-03-03T09:07:25.255Z,12.58
2023-03-03T09:10:02.764Z,12.84
2023-03-03T09:12:45.762Z,13.16
2023-03-03T09:15:34.124Z,13.96
2023-03-03T09:18:08.636Z,15.04
2023-03-03T09:20:38.551Z,16.75
2023-03-03T09:23:31.252Z,18.43
2023-03-03T09:26:15.559Z,19.97
2023-03-03T09:28:44.048Z,20.69
2023-03-03T09:31:28.060Z,20.72
2023-03-03T09:33:59.550Z,20.78
2023-03-03T09:36:38.660Z,20.24
2023-03-03T09:39:20.660Z,19.33
2023-03-03T09:42:20.790Z,18.55
2023-03-03T09:44:57.967Z,17.84
2023-03-03T09:47:44.825Z,17.46
2023-03-03T09:50:41.383Z,16.87
2023-03-03T09:53:19.549Z,16.08
2023-03-03T09:56:09.397Z,15.50
2023-03-03T09:58:59.180Z,15.18
2023-03-03T10:01:46.187Z,14.93
2023-03-03T10:04:25.257Z,14.74
2023-03-03T10:07:27.191Z,14.61
2023-03-03T10:10:14.610Z,14.74
2023-03-03T10:13:02.247Z,14.93
2023-03-03T10:15:40.496Z,15.15
2023-03-03T10:18:33.715Z,15.02
2023-03-03T10:21:20.850Z,14.93
2023-03-03T10:24:12.459Z,14.62
2023-03-03T10:27:09.932Z,14.50
2023-03-03T10:29:44.945Z,14.61
2023-03-03T10:32:16.595Z,14.86
2023-03-03T10:35:09.712Z,15.19
2023-03-03T10:38:10.812Z,15.38
2023-03-03T10:41:08.576Z,15.47
2023-03-03T10:43:39.463Z,15.39
2023-03-03T10:46:19.979Z,15.19
2023-03-03T10:49:13.777Z,14.85
2023-03-03T10:52:11.715Z,14.62
2023-03-03T10:54:52.076Z,14.25
2023-03-03T10:57:47.226Z,13.92
2023-03-03T11:00:31.199Z,13.82
2023-03-03T11:03:37.213Z,13.76
2023-03-03T11:06:13.748Z,13.53
2023-03-03T11:09:06.626Z,13.43
2023-03-03T11:11:44.934Z,13.21
2023-03-03T11:14:25.509Z,12.99
2023-03-03T11:17:16.006Z,12.78
2023-03-03T11:19:54.519Z,12.68
2023-03-03T11:22:35.598Z,12.66
2023-03-03T11:25:12.981Z,12.83
2023-03-03T11:28:08.311Z,12.93
2023-03-03T11:30:58.614Z,13.11
2023-03-03T11:33:52.669Z,13.27
2023-03-03T11:36:28.219Z,13.27
2023-03-03T11:39:02.157Z,13.20
2023-03-03T11:41:34.603Z,13.07
2023-03-03T11:44:24.559Z,12.85
2023-03-03T11:47:04.414Z,12.59
2023-03-03T11:49:50.679Z,12.46
2023-03-03T11:52:40.112Z,12.41
2023-03-03T11:55:26.780Z,12.50
2023-03-03T11:58:05.332Z,12.62
2023-03-03T12:01:11.559Z,12.61
2023-03-03T12:04:01.301Z,12.58
2023-03-03T12:06:34.157Z,12.58
2023-03-03T12:09:14.136Z,12.46
2023-03-03T12:12:08.317Z,12.22
2023-03-03T12:15:15.803Z,12.02
2023-03-03T12:18:09.153Z,11.86
2023-03-03T12:20:54.736Z,11.98
2023-03-03T12:23:25.576Z,12.42
2023-03-03T12:26:08.532Z,12.60
2023-03-03T12:28:42.906Z,12.57
2023-03-03T12:31:23.154Z,12.51
2023-03-03T12:34:19.204Z,12.88
2023-03-03T12:36:47.343Z,13.64
2023-03-03T12:39:53.089Z,14.33
2023-03-03T12:42:49.166Z,15.39
2023-03-03T12:45:23.484Z,15.87
2023-03-03T12:48:00.567Z,15.53
2023-03-03T12:51:06.988Z,15.14
2023-03-03T12:53:53.955Z,14.76
2023-03-03T12:56:35.134Z,14.31
2023-03-03T12:59:18.726Z,13.94
2023-03-03T13:02:11.310Z,14.29
2023-03-03T13:05:02.121Z,15.08
2023-03-03T13:08:19.903Z,15.81
2023-03-03T13:10:51.093Z,16.39
2023-03-03T13:13:28.816Z,16.76
2023-03-03T13:16:16.793Z,17.07
2023-03-03T13:19:00.876Z,17.24
2023-03-03T13:21:34.173Z,17.49
2023-03-03T13:24:17.820Z,17.48
2023-03-03T13:27:02.470Z,16.81
2023-03-03T13:29:50.026Z,15.93
2023-03-03T13:32:22.687Z,15.49
2023-03-03T13:35:02.572Z,15.10
2023-03-03T13:37:46.894Z,14.65
2023-03-03T13:40:32.497Z,14.20
2023-03-03T13:43:13.584Z,13.92
2023-03-03T13:46:15.099Z,13.60
2023-03-03T13:48:49.163Z,13.23
2023-03-03T13:51:24.448Z,12.96
2023-03-03T13:54:16.694Z,12.71
2023-03-03T13:57:20.660Z,12.38
2023-03-03T13:59:48.979Z,12.03
2023-03-03T14:02:26.313Z,11.69
2023-03-03T14:05:02.291Z,11.43
2023-03-03T14:07:39.732Z,11.14
2023-03-03T14:10:19.218Z,10.95
2023-03-03T14:12:56.604Z,10.85
2023-03-03T14:15:33.238Z,10.81
2023-03-03T14:18:19.124Z,10.76
2023-03-03T14:20:53.240Z,10.76
2023-03-03T14:23:43.095Z,10.85
2023-03-03T14:26:12.443Z,10.96
2023-03-03T14:28:50.122Z,10.97
2023-03-03T14:31:22.457Z,10.91
2023-03-03T14:34:02.769Z,10.81
2023-03-03T14:36:39.226Z,10.77
2023-03-03T14:39:25.942Z,10.70
2023-03-03T14:41:57.551Z,10.52
2023-03-03T14:44:30.368Z,10.37
2023-03-03T14:47:10.732Z,10.20
2023-03-03T14:49:40.772Z,10.06
2023-03-03T14:52:15.116Z,9.94
2023-03-03T14:54:46.930Z,9.85
2023-03-03T14:57:20.745Z,9.79
2023-03-03T15:00:06.952Z,9.64
2023-03-03T15:02:41.059Z,9.49
2023-03-03T15:05:24.475Z,9.33
2023-03-03T15:08:14.583Z,9.16
2023-03-03T15:10:45.428Z,8.98
2023-03-03T15:13:20.088Z,8.84
2023-03-03T15:16:00.455Z,8.70
2023-03-03T15:18:32.723Z,8.58
2023-03-03T15:21:33.099Z,8.49
2023-03-03T15:24:16.734Z,8.37
2023-03-03T15:26:51.792Z,8.28
2023-03-03T15:29:36.863Z,8.11
2023-03-03T15:32:16.854Z,8.00
2023-03-03T15:35:14.424Z,7.89
2023-03-03T15:37:54.818Z,7.78
2023-03-03T15:40:44.243Z,7.69
2023-03-03T15:43:37.289Z,7.59
2023-03-03T15:46:34.550Z,7.48
2023-03-03T15:49:21.557Z,7.38
2023-03-03T15:52:03.424Z,7.28
2023-03-03T15:54:48.904Z,7.20
2023-03-03T15:57:54.579Z,7.09
2023-03-03T16:00:49.825Z,7.01
2023-03-03T16:03:24.233Z,6.95
2023-03-03T16:06:11.716Z,6.87
2023-03-03T16:08:58.845Z,6.78
2023-03-03T16:11:49.960Z,6.68
2023-03-03T16:14:51.206Z,6.55
2023-03-03T16:17:43.850Z,6.39
2023-03-03T16:20:23.522Z,6.24
2023-03-03T16:23:16.665Z,6.10
2023-03-03T16:26:15.136Z,5.97
2023-03-03T16:29:10.548Z,5.83
2023-03-03T16:31:57.308Z,5.69
2023-03-03T16:34:55.751Z,5.53
2023-03-03T16:37:26.587Z,5.37
2023-03-03T16:40:20.462Z,5.20
2023-03-03T16:43:12.466Z,5.05
2023-03-03T16:45:42.251Z,4.91
2023-03-03T16:49:00.962Z,4.80
2023-03-03T16:51:59.354Z,4.73
2023-03-03T16:54:38.382Z,4.69
2023-03-03T16:57:24.887Z,4.67
2023-03-03T17:00:01.149Z,4.65
2023-03-03T17:02:53.595Z,4.63
2023-03-03T17:05:27.596Z,4.61
2023-03-03T17:08:15.032Z,4.61
2023-03-03T17:10:57.483Z,4.61
2023-03-03T17:13:58.992Z,4.61
2023-03-03T17:17:01.248Z,4.61
2023-03-03T17:19:47.463Z,4.61
2023-03-03T17:22:49.034Z,4.60
2023-03-03T17:25:45.893Z,4.56
2023-03-03T17:28:35.969Z,4.53
2023-03-03T17:31:23.820Z,4.51
2023-03-03T17:33:52.395Z,4.47
2023-03-03T17:36:57.948Z,4.43
2023-03-03T17:39:38.197Z,4.36
2023-03-03T17:42:36.807Z,4.28
2023-03-03T17:45:14.180Z,4.18
2023-03-03T17:47:57.625Z,4.08
2023-03-03T17:50:37.978Z,3.99
2023-03-03T17:53:09.159Z,3.88
2023-03-03T17:55:53.163Z,3.79
2023-03-03T17:58:33.653Z,3.71
2023-03-03T18:01:20.550Z,3.60
2023-03-03T18:03:48.995Z,3.49
2023-03-03T18:06:41.682Z,3.40
2023-03-03T18:09:36.011Z,3.30
2023-03-03T18:12:13.017Z,3.22
2023-03-03T18:15:06.920Z,3.16
2023-03-03T18:17:55.171Z,3.09
2023-03-03T18:21:03.190Z,3.02
2023-03-03T18:23:34.166Z,2.95
2023-03-03T18:26:04.442Z,2.89
2023-03-03T18:28:49.373Z,2.81
2023-03-03T18:31:24.848Z,2.74
2023-03-03T18:34:18.018Z,2.68
2023-03-03T18:37:30.957Z,2.59
2023-03-03T18:40:02.007Z,2.50
2023-03-03T18:42:43.820Z,2.44
2023-03-03T18:45:18.099Z,2.38
2023-03-03T18:48:01.481Z,2.30
2023-03-03T18:50:35.742Z,2.23
2023-03-03T18:53:16.302Z,2.18
2023-03-03T18:55:46.626Z,2.11
2023-03-03T18:58:14.540Z,2.04
2023-03-03T19:00:48.298Z,2.00
2023-03-03T19:03:34.177Z,1.95
2023-03-03T19:06:05.193Z,1.94
2023-03-03T19:08:45.791Z,1.93
2023-03-03T19:11:41.031Z,1.95
2023-03-03T19:14:21.057Z,1.98
2023-03-03T19:16:51.169Z,2.00
2023-03-03T19:19:22.452Z,2.02
2023-03-03T19:22:12.103Z,2.04
2023-03-03T19:24:40.271Z,2.07
2023-03-03T19:27:35.886Z,2.09
2023-03-03T19:30:22.859Z,2.12
2023-03-03T19:32:59.995Z,2.15
2023-03-03T19:35:43.032Z,2.20
2023-03-03T19:38:21.531Z,2.27
2023-03-03T19:41:09.267Z,2.35
2023-03-03T19:43:50.344Z,2.41
2023-03-03T19:46:47.428Z,2.44
2023-03-03T19:49:45.310Z,2.46
2023-03-03T19:52:19.490Z,2.50
2023-03-03T19:55:03.159Z,2.53
2023-03-03T19:57:46.481Z,2.54
2023-03-03T20:00:17.623Z,2.54
2023-03-03T20:03:14.792Z,2.54
2023-03-03T20:05:53.982Z,2.54
2023-03-03T20:08:28.198Z,2.55
2023-03-03T20:11:05.413Z,2.55
2023-03-03T20:13:57.718Z,2.54
2023-03-03T20:16:41.720Z,2.52
2023-03-03T20:19:36.373Z,2.49
2023-03-03T20:22:19.379Z,2.44
2023-03-03T20:25:26.027Z,2.39
2023-03-03T20:28:09.525Z,2.34
2023-03-03T20:30:43.816Z,2.27
2023-03-03T20:34:02.364Z,2.21
2023-03-03T20:36:33.321Z,2.11
2023-03-03T20:39:14.633Z,2.03
2023-03-03T20:42:12.057Z,1.94
2023-03-03T20:44:58.796Z,1.86
2023-03-03T20:47:38.816Z,1.76
2023-03-03T20:50:16.530Z,1.67
2023-03-03T20:52:58.822Z,1.56
2023-03-03T20:55:29.958Z,1.47
2023-03-03T20:59:06.046Z,1.35
2023-03-03T21:01:53.266Z,1.24
2023-03-03T21:04:31.150Z,1.12
2023-03-03T21:07:03.990Z,1.03
2023-03-03T21:09:36.576Z,0.98
2023-03-03T21:12:26.478Z,0.97
2023-03-03T21:15:08.697Z,0.96
2023-03-03T21:17:36.879Z,0.96
2023-03-03T21:20:26.482Z,0.94
2023-03-03T21:22:55.642Z,0.94
2023-03-03T21:25:43.398Z,0.93
2023-03-03T21:28:26.375Z,0.89
2023-03-03T21:31:15.978Z,0.84
2023-03-03T21:33:49.687Z,0.78
2023-03-03T21:36:45.202Z,0.71
2023-03-03T21:39:29.927Z,0.65
2023-03-03T21:42:04.382Z,0.60
2023-03-03T21:44:44.768Z,0.56
2023-03-03T21:47:15.415Z,0.50
2023-03-03T21:49:45.894Z,0.46
2023-03-03T21:52:16.512Z,0.42
2023-03-03T21:54:49.329Z,0.36
2023-03-03T21:57:18.444Z,0.31
2023-03-03T21:59:47.003Z,0.25
2023-03-03T22:02:15.022Z,0.20
2023-03-03T22:04:43.402Z,0.14
2023-03-03T22:07:11.528Z,0.10
2023-03-03T22:09:39.713Z,0.05
2023-03-03T22:12:08.041Z,-0.03
2023-03-03T22:14:36.308Z,-0.09
2023-03-03T22:17:04.388Z,-0.13
2023-03-03T22:19:34.377Z,-0.18
2023-03-03T22:22:02.634Z,-0.22
2023-03-03T22:24:31.580Z,-0.27
2023-03-03T22:26:59.684Z,-0.31
2023-03-03T22:29:27.862Z,-0.36
2023-03-03T22:31:56.271Z,-0.40
2023-03-03T22:34:24.564Z,-0.43
2023-03-03T22:36:52.633Z,-0.45
2023-03-03T22:39:20.665Z,-0.50
2023-03-03T22:41:48.730Z,-0.54
2023-03-03T22:44:16.802Z,-0.58
2023-03-03T22:46:44.802Z,-0.62
2023-03-03T22:49:13.006Z,-0.63
2023-03-03T22:51:41.186Z,-0.66
2023-03-03T22:54:09.407Z,-0.68
2023-03-03T22:56:37.900Z,-0.70
2023-03-03T22:59:05.846Z,-0.73
2023-03-03T23:01:33.823Z,-0.75
2023-03-03T23:04:02.022Z,-0.78
2023-03-03T23:06:30.175Z,-0.75
2023-03-03T23:08:58.242Z,-0.66
2023-03-03T23:11:27.747Z,-0.51
2023-03-03T23:13:55.873Z,-0.36
2023-03-03T23:16:24.115Z,-0.22
2023-03-03T23:18:52.266Z,-0.14
2023-03-03T23:21:20.341Z,-0.09
2023-03-03T23:23:48.506Z,-0.06
2023-03-03T23:26:16.986Z,-0.04
2023-03-03T23:28:45.077Z,-0.06
2023-03-03T23:31:13.319Z,-0.08
2023-03-03T23:33:41.315Z,-0.11
2023-03-03T23:36:10.105Z,-0.15
2023-03-03T23:38:38.175Z,-0.19
2023-03-03T23:41:06.254Z,-0.24
2023-03-03T23:43:34.423Z,-0.31
2023-03-03T23:46:02.700Z,-0.35
2023-03-03T23:48:30.876Z,-0.38
2023-03-03T23:50:59.050Z,-0.43
2023-03-03T23:53:27.126Z,-0.46
2023-03-03T23:55:55.289Z,-0.50
2023-03-03T23:58:23.369Z,-0.55
